createdAt,value
2023-01-03T00:00:47.988Z,102088.50
2023-01-03T00:05:42.805Z,102126.75
2023-01-03T00:10:36.277Z,102082.50
2023-01-03T00:15:29.649Z,102091.03
2023-01-03T00:20:24.490Z,102119.03
2023-01-03T00:25:20.472Z,102109.03
2023-01-03T00:30:14.490Z,102117.53
2023-01-03T00:35:09.162Z,102119.41
2023-01-03T00:40:04.512Z,102078.78
2023-01-03T00:44:57.699Z,102085.59
2023-01-03T00:49:50.885Z,102117.06
2023-01-03T00:54:44.107Z,102112.03
2023-01-03T00:59:38.651Z,102077.91
2023-01-03T01:04:33.258Z,102099.91
2023-01-03T01:09:28.628Z,102062.72
2023-01-03T01:14:24.306Z,102063.63
2023-01-03T01:19:20.292Z,102078.94
2023-01-03T01:24:18.038Z,102093.41
2023-01-03T01:29:13.202Z,102083.31
2023-01-03T01:34:06.831Z,102102.03
2023-01-03T01:39:04.301Z,102098.78
2023-01-03T01:44:15.401Z,102100.69
2023-01-03T01:49:26.467Z,101981.78
2023-01-03T01:54:21.556Z,102030.28
2023-01-03T01:59:15.809Z,102085.59
2023-01-03T02:04:13.225Z,102075.38
2023-01-03T02:09:06.556Z,102071.25
2023-01-03T02:14:14.523Z,102028.88
2023-01-03T02:19:32.312Z,102041.69
2023-01-03T02:24:47.975Z,102048.53
2023-01-03T02:30:04.468Z,102004.41
2023-01-03T02:35:04.738Z,102045.31
2023-01-03T02:40:07.631Z,102036.84
2023-01-03T02:45:11.331Z,102035.19
2023-01-03T02:50:09.381Z,102057.31
2023-01-03T02:55:08.094Z,101986.75
2023-01-03T03:00:08.254Z,101995.16
2023-01-03T03:05:06.681Z,102050.38
2023-01-03T03:10:17.492Z,102007.00
2023-01-03T03:15:13.973Z,102049.38
2023-01-03T03:20:34.286Z,102046.72
2023-01-03T03:25:30.634Z,101988.06
2023-01-03T03:30:26.551Z,102009.28
2023-01-03T03:35:24.499Z,102009.34
2023-01-03T03:40:35.323Z,102017.84
2023-01-03T03:45:36.731Z,102024.81
2023-01-03T03:50:36.525Z,102056.19
2023-01-03T03:55:34.510Z,102012.91
2023-01-03T04:00:31.152Z,102015.72
2023-01-03T04:05:28.670Z,102024.38
2023-01-03T04:10:24.580Z,102036.25
2023-01-03T04:15:20.356Z,102063.50
2023-01-03T04:20:15.172Z,102059.31
2023-01-03T04:25:09.327Z,101996.41
2023-01-03T04:30:04.779Z,102031.31
2023-01-03T04:34:58.053Z,101997.31
2023-01-03T04:39:51.613Z,102007.63
2023-01-03T04:44:45.177Z,102063.75
2023-01-03T04:49:39.726Z,102009.44
2023-01-03T04:54:33.028Z,102041.81
2023-01-03T04:59:26.209Z,102024.78
2023-01-03T05:04:19.778Z,101888.69
2023-01-03T05:09:14.348Z,101980.44
2023-01-03T05:14:14.280Z,102073.91
2023-01-03T05:19:08.239Z,102073.91
2023-01-03T05:24:19.372Z,102080.69
2023-01-03T05:29:14.344Z,102087.34
2023-01-03T05:34:07.555Z,101934.44
2023-01-03T05:39:04.303Z,102075.50
2023-01-03T05:43:57.642Z,102061.16
2023-01-03T05:48:52.423Z,101985.66
2023-01-03T05:53:47.286Z,102097.03
2023-01-03T05:58:44.168Z,102091.97
2023-01-03T06:03:37.422Z,102089.56
2023-01-03T06:08:32.081Z,101966.34
2023-01-03T06:13:25.259Z,102085.44
2023-01-03T06:18:18.581Z,102035.34
2023-01-03T06:23:11.787Z,102098.28
2023-01-03T06:28:06.512Z,102065.19
2023-01-03T06:32:59.635Z,102108.59
2023-01-03T06:37:52.870Z,102072.84
2023-01-03T06:42:46.006Z,102092.38
2023-01-03T06:47:58.298Z,102120.50
2023-01-03T06:53:08.736Z,102104.25
2023-01-03T06:58:02.027Z,101855.00
2023-01-03T07:02:56.726Z,102120.16
2023-01-03T07:07:50.440Z,102103.94
2023-01-03T07:13:00.689Z,102121.66
2023-01-03T07:17:53.857Z,102087.50
2023-01-03T07:22:48.424Z,102124.75
2023-01-03T07:27:41.813Z,102053.84
2023-01-03T07:32:35.133Z,102116.59
2023-01-03T07:37:28.428Z,102132.38
2023-01-03T07:42:40.484Z,102137.19
2023-01-03T07:47:39.206Z,102119.72
2023-01-03T07:52:32.396Z,102131.06
2023-01-03T07:57:26.956Z,102131.41
2023-01-03T08:02:20.614Z,102119.66
2023-01-03T08:07:14.012Z,102109.53
2023-01-03T08:12:28.036Z,102029.19
2023-01-03T08:17:22.615Z,102120.91
2023-01-03T08:22:15.804Z,102114.25
2023-01-03T08:27:08.945Z,102132.75
2023-01-03T08:32:03.200Z,102106.38
2023-01-03T08:37:02.225Z,102106.06
2023-01-03T08:41:59.337Z,102142.75
2023-01-03T08:46:55.806Z,102141.19
2023-01-03T08:51:49.191Z,102134.63
2023-01-03T08:56:43.758Z,102127.22
2023-01-03T09:01:37.314Z,102102.84
2023-01-03T09:06:31.094Z,102068.59
2023-01-03T09:11:24.874Z,102097.56
2023-01-03T09:16:20.781Z,102082.63
2023-01-03T09:21:14.067Z,102049.28
2023-01-03T09:26:08.902Z,102065.25
2023-01-03T09:31:05.136Z,102021.50
2023-01-03T09:36:01.023Z,102061.16
2023-01-03T09:41:03.303Z,102023.25
2023-01-03T09:45:59.970Z,102023.22
2023-01-03T09:56:29.474Z,102021.47
2023-01-03T10:01:57.845Z,102002.44
2023-01-03T10:07:03.917Z,102025.81
2023-01-03T10:12:12.772Z,102017.88
2023-01-03T10:17:22.259Z,101958.78
2023-01-03T10:22:19.344Z,101937.97
2023-01-03T10:27:18.420Z,102004.38
2023-01-03T10:32:25.208Z,101872.84
2023-01-03T10:37:19.957Z,101850.94
2023-01-03T10:42:19.845Z,101964.03
2023-01-03T10:47:19.266Z,101870.84
2023-01-03T10:52:18.429Z,101931.19
2023-01-03T10:57:39.796Z,101931.16
2023-01-03T11:02:44.356Z,101889.63
2023-01-03T11:07:44.364Z,101917.16
2023-01-03T11:12:40.526Z,101950.94
2023-01-03T11:17:33.864Z,101940.38
2023-01-03T11:22:38.086Z,101841.16
2023-01-03T11:28:10.371Z,101898.22
2023-01-03T11:33:25.573Z,101870.56
2023-01-03T11:38:46.228Z,101925.06
2023-01-03T11:43:56.117Z,101881.00
2023-01-03T11:49:17.711Z,101828.00
2023-01-03T11:54:30.321Z,101917.97
2023-01-03T11:59:49.436Z,101919.38
2023-01-03T12:04:56.745Z,101861.13
2023-01-03T12:09:59.237Z,101874.38
2023-01-03T12:15:00.597Z,101722.28
2023-01-03T12:19:58.503Z,101868.03
2023-01-03T12:25:04.445Z,101879.06
2023-01-03T12:30:04.433Z,101904.41
2023-01-03T12:35:14.868Z,101859.94
2023-01-03T12:40:17.823Z,101871.72
2023-01-03T12:45:34.189Z,101776.00
2023-01-03T12:50:34.495Z,101873.06
2023-01-03T12:55:41.844Z,101854.25
2023-01-03T13:00:54.828Z,101905.66
2023-01-03T13:05:51.173Z,101889.00
2023-01-03T13:10:50.686Z,101885.00
2023-01-03T13:15:46.906Z,101920.63
2023-01-03T13:20:43.622Z,101876.28
2023-01-03T13:25:44.286Z,101922.50
2023-01-03T13:30:39.457Z,101847.88
2023-01-03T13:35:36.764Z,101891.25
2023-01-03T13:41:08.092Z,101873.13
2023-01-03T13:46:02.945Z,101760.69
2023-01-03T13:51:33.762Z,101923.56
2023-01-03T13:56:29.428Z,101842.81
2023-01-03T14:01:44.663Z,101927.03
2023-01-03T14:07:04.671Z,101884.72
2023-01-03T14:12:19.152Z,101888.72
2023-01-03T14:17:17.733Z,101913.81
2023-01-03T14:22:34.856Z,101925.34
2023-01-03T14:27:33.039Z,101913.41
2023-01-03T14:32:34.387Z,101855.63
2023-01-03T14:37:33.363Z,101846.06
2023-01-03T14:42:27.239Z,101940.13
2023-01-03T14:47:20.727Z,101826.38
2023-01-03T14:52:22.675Z,101938.97
2023-01-03T14:57:22.707Z,101944.09
2023-01-03T15:02:17.075Z,101932.41
2023-01-03T15:07:32.358Z,101943.63
2023-01-03T15:18:48.267Z,101871.16
2023-01-03T15:23:44.687Z,101945.91
2023-01-03T15:28:43.076Z,101744.97
2023-01-03T15:33:42.043Z,101930.16
2023-01-03T15:38:39.397Z,101971.34
2023-01-03T15:43:38.314Z,101835.13
2023-01-03T15:48:42.169Z,101754.59
2023-01-03T15:53:44.537Z,101857.09
2023-01-03T15:58:39.343Z,101978.47
2023-01-03T16:03:34.178Z,101930.41
2023-01-03T16:08:31.578Z,101936.19
2023-01-03T16:13:28.792Z,101884.97
2023-01-03T16:18:27.831Z,101958.03
2023-01-03T16:23:28.626Z,101914.81
2023-01-03T16:28:22.064Z,102004.22
2023-01-03T16:33:21.196Z,101989.75
2023-01-03T16:38:15.743Z,101987.69
2023-01-03T16:43:11.564Z,101984.53
2023-01-03T16:48:05.291Z,102021.91
2023-01-03T16:53:00.032Z,101861.41
2023-01-03T16:58:01.573Z,101877.28
2023-01-03T17:02:56.050Z,102041.34
2023-01-03T17:07:52.461Z,102042.03
2023-01-03T17:12:47.186Z,102042.81
2023-01-03T17:17:40.899Z,102006.44
2023-01-03T17:22:34.267Z,102012.06
2023-01-03T17:27:32.518Z,102038.16
2023-01-03T17:32:28.607Z,102043.75
2023-01-03T17:37:23.845Z,101956.56
2023-01-03T17:42:19.601Z,102004.66
2023-01-03T17:47:40.706Z,102060.13
2023-01-03T17:52:37.950Z,101803.75
2023-01-03T17:57:31.653Z,102061.88
2023-01-03T18:02:28.934Z,101964.34
2023-01-03T18:07:25.816Z,102035.13
2023-01-03T18:12:23.056Z,102076.00
2023-01-03T18:17:28.462Z,102044.81
2023-01-03T18:22:22.449Z,101936.13
2023-01-03T18:27:16.564Z,102094.06
2023-01-03T18:32:26.243Z,102060.91
2023-01-03T18:37:19.993Z,102078.22
2023-01-03T18:42:31.811Z,102047.09
2023-01-03T18:47:26.693Z,102072.38
2023-01-03T18:52:25.426Z,102096.19
2023-01-03T18:57:19.330Z,101978.66
2023-01-03T19:02:15.663Z,102006.19
2023-01-03T19:07:19.932Z,102089.72
2023-01-03T19:12:19.699Z,102028.09
2023-01-03T19:17:14.658Z,102057.84
2023-01-03T19:22:22.800Z,102107.00
2023-01-03T19:27:21.059Z,101949.38
2023-01-03T19:32:18.713Z,102109.25
2023-01-03T19:37:12.386Z,102095.75
2023-01-03T19:42:26.034Z,102109.19
2023-01-03T19:47:21.281Z,102047.63
2023-01-03T19:52:14.959Z,102076.69
2023-01-03T19:57:21.626Z,102125.31
2023-01-03T20:02:32.369Z,102135.94
2023-01-03T20:07:25.564Z,102142.34
2023-01-03T20:12:25.271Z,102042.69
2023-01-03T20:17:21.864Z,102114.00
2023-01-03T20:22:37.270Z,102131.91
2023-01-03T20:27:30.105Z,102149.44
2023-01-03T20:32:24.853Z,102163.66
2023-01-03T20:37:23.332Z,102161.44
2023-01-03T20:42:21.479Z,102131.28
2023-01-03T20:47:17.465Z,101917.09
2023-01-03T20:52:18.383Z,102116.47
2023-01-03T20:57:16.198Z,102135.06
2023-01-03T21:02:10.901Z,102035.16
2023-01-03T21:07:11.304Z,102167.03
2023-01-03T21:12:05.447Z,102168.34
2023-01-03T21:16:58.698Z,102168.00
2023-01-03T21:21:53.798Z,102131.78
2023-01-03T21:26:48.766Z,102154.16
2023-01-03T21:31:43.983Z,102162.66
2023-01-03T21:36:37.653Z,102070.97
2023-01-03T21:41:33.151Z,102130.59
2023-01-03T21:46:28.849Z,102180.16
2023-01-03T21:51:34.996Z,102161.94
2023-01-03T21:56:30.955Z,102162.19
2023-01-03T22:01:25.206Z,102079.81
2023-01-03T22:06:22.948Z,102177.44
2023-01-03T22:11:16.145Z,102183.50
2023-01-03T22:16:12.913Z,102143.72
2023-01-03T22:21:09.717Z,102175.09
2023-01-03T22:26:05.307Z,102038.31
2023-01-03T22:30:58.460Z,102169.97
2023-01-03T22:35:51.575Z,102165.56
2023-01-03T22:40:44.867Z,102118.78
2023-01-03T22:45:41.239Z,102099.16
2023-01-03T22:50:34.558Z,102066.09
2023-01-03T22:55:32.183Z,102157.81
2023-01-03T23:00:25.701Z,102186.66
2023-01-03T23:05:20.941Z,102187.59
2023-01-03T23:10:14.301Z,102178.25
2023-01-03T23:15:08.474Z,102132.44
2023-01-03T23:20:01.726Z,102133.50
2023-01-03T23:24:58.159Z,102147.28
2023-01-03T23:29:51.286Z,102206.13
2023-01-03T23:34:44.448Z,102218.19
2023-01-03T23:39:37.897Z,102210.31
2023-01-03T23:44:33.359Z,102172.16
2023-01-03T23:49:26.629Z,102168.78
2023-01-03T23:54:20.035Z,102162.75
2023-01-03T23:59:13.219Z,102117.84
